Water Valley, Texas
Current Conditions -  °F | °C
As of 2:51 PM on Saturday 22 Nov 2014 (Local Time) from KSJT Reporting Station
Few Clouds Few Clouds  
Wind Chill: 24°   Ceiling: Unl
Heat Index: 24°   Visibility: 10mi
Dew Point: 13°   Wind: 16mph
Humidity: 50%   Direction: 240°WSW
Pressure: 29.75"   Gusts: 26mph
Location:  31.67°N, 100.72°W
Report Text: KSJT 222051Z 24014G23KT 10SM FEW040 24/13 A2975 RMK AO2 PK WND 20026/2002 LTG DSNT N SLP058 T02440133 56029
Loading
Personal Weather Stations






























Interactive Weather Map New forecast layout! Learn more

10-Day Weather Forecast

Advertisements
Track Severe Weather on mobile